Archival Weather

Chicago O'Hare International

Chicago, Illinois (KORD)

Report from: Saturday, December 31, 2022 1:51 PM CST
Current time: Wednesday, May 29, 2024 3:40 AM CDT

Current weather – Weather history – Daily summaries
Weather forecast

Temperature2.8°C (37.0°F)
Wind chill1.4°C (34.5°F)
Dew point-3.9°C (25.0°F)
Winds 3 kts (1.5 m/s, 3.5 mph) South-Southwest (200°)
Visibility10 mi. (16.1 km)
Clouds Few clouds 11,000 ft. (3,353 m)
Ceiling: Broken clouds 15,000 ft. (4,572 m)
Broken clouds 20,000 ft. (6,096 m)
Altimeter29.88 in.Hg (1012 mB)
Relative humidity61 %
Density altitude-1,387 ft. (-423 m)
Sea-level pressure101.3 kPa (1013 mB, 29.90 in.Hg)
Remarks Automated weather observing station with precipitation discriminator
Flight conditions Visual Meteorological Conditions
Raw dataKORD 311951Z 20003KT 10SM FEW110 BKN150 BKN200 03/M04 A2988 RMK AO2 SLP126 T00281039
An error has occurred. This application may no longer respond until reloaded. Reload 🗙